Spring Creek, Texas
Current Conditions -  °F | °C
As of 8:55 PM on Sunday 23 Nov 2014 (Local Time) from KT82 Reporting Station
Clear Clear  
Wind Chill: 56°   Ceiling: Unl
Heat Index: 56°   Visibility: 10mi
Dew Point: 38°   Wind: 0mph
Humidity: 51%   Direction: NA
Pressure: 29.74"   Gusts: NA
Location:  30.3069°N, 98.8978°W
Report Text: KT82 240255Z AUTO 00000KT 10SM CLR 13/03 A2974 RMK AO2 T01320032
Loading
Personal Weather Stations






























Interactive Weather Map New forecast layout! Learn more

10-Day Weather Forecast

Advertisements
Track Severe Weather on mobile